Time;durP1;ratioP1;P1;durP2;ratioP2;P2;SDS_P1;SDS_P2;PMS_P1;PMS_P2;Temp;Humidity;BMP_temperature;BMP_pressure;BME280_temperature;BME280_humidity;BME280_pressure;Samples;Min_cycle;Max_cycle;Signal;HPM_P1;HPM_P2
2022/05/19 00:01:01;;;;;;;2.35;1.52;;;;;;;;;;4420213;32;20280;-55
2022/05/19 00:03:33;;;;;;;2.35;1.20;;;;;;;;;;4420188;32;20222;-54
2022/05/19 00:05:59;;;;;;;3.67;1.73;;;;;;;;;;4413679;32;20622;-54
2022/05/19 00:08:26;;;;;;;3.72;1.65;;;;;;;;;;4405327;32;20233;-54
2022/05/19 00:10:52;;;;;;;2.20;1.85;;;;;;;;;;4405063;32;20205;-54
2022/05/19 00:13:18;;;;;;;2.67;1.25;;;;;;;;;;4405438;32;20225;-54
2022/05/19 00:15:43;;;;;;;1.98;1.40;;;;;;;;;;4404752;32;20239;-54
2022/05/19 00:18:09;;;;;;;3.08;1.27;;;;;;;;;;4405113;32;20283;-54
2022/05/19 00:20:34;;;;;;;2.72;1.35;;;;;;;;;;4406120;32;20232;-53
2022/05/19 00:23:00;;;;;;;6.87;1.40;;;;;;;;;;4420134;32;20225;-53
2022/05/19 00:25:25;;;;;;;2.25;1.12;;;;;;;;;;4419857;32;20346;-55
2022/05/19 00:27:51;;;;;;;3.40;1.60;;;;;;;;;;4419702;32;20213;-54
2022/05/19 00:30:16;;;;;;;3.00;1.50;;;;;;;;;;4419254;32;20251;-54
2022/05/19 00:32:41;;;;;;;2.92;1.30;;;;;;;;;;4420009;32;20236;-54
2022/05/19 00:35:08;;;;;;;2.42;1.08;;;;;;;;;;4419880;32;20209;-53
2022/05/19 00:37:33;;;;;;;1.27;1.02;;;;;;;;;;4419705;32;20351;-53
2022/05/19 00:39:59;;;;;;;1.48;1.25;;;;;;;;;;4414680;32;20280;-53
2022/05/19 00:45:10;;;;;;;1.33;1.20;;;;;;;;;;4410234;32;20232;-54
2022/05/19 00:47:54;;;;;;;4.30;1.10;;;;;;;;;;4419651;32;20278;-54
2022/05/19 00:50:28;;;;;;;2.50;1.35;;;;;;;;;;4419561;32;20190;-54
2022/05/19 00:53:02;;;;;;;3.42;1.25;;;;;;;;;;4419770;32;20247;-54
2022/05/19 00:55:33;;;;;;;2.10;1.00;;;;;;;;;;4419306;32;20273;-53
2022/05/19 00:58:07;;;;;;;9.03;1.20;;;;;;;;;;4419521;32;20665;-53
2022/05/19 01:00:33;;;;;;;1.20;1.10;;;;;;;;;;4417769;32;20633;-53
2022/05/19 01:03:01;;;;;;;3.05;1.42;;;;;;;;;;4411305;32;20221;-53
2022/05/19 01:05:32;;;;;;;0.95;0.90;;;;;;;;;;4406502;32;20308;-54
2022/05/19 01:08:09;;;;;;;1.05;0.90;;;;;;;;;;4419532;32;20233;-53
2022/05/19 01:10:36;;;;;;;3.87;1.35;;;;;;;;;;4419111;32;20260;-54
2022/05/19 01:13:02;;;;;;;5.40;1.00;;;;;;;;;;4419442;32;20303;-54
2022/05/19 01:15:28;;;;;;;1.73;1.27;;;;;;;;;;4418910;32;20329;-54
2022/05/19 01:17:54;;;;;;;6.82;1.17;;;;;;;;;;4419133;32;20222;-53
2022/05/19 01:20:25;;;;;;;2.72;1.15;;;;;;;;;;4418824;32;20255;-54
2022/05/19 01:22:54;;;;;;;3.40;1.58;;;;;;;;;;4419215;32;20224;-53
2022/05/19 01:25:45;;;;;;;2.65;1.50;;;;;;;;;;4418642;32;20300;-54
2022/05/19 01:28:10;;;;;;;4.50;1.40;;;;;;;;;;4418996;32;20285;-55
2022/05/19 01:30:36;;;;;;;3.13;1.17;;;;;;;;;;4418799;32;20355;-53
2022/05/19 01:33:02;;;;;;;1.73;1.27;;;;;;;;;;4419156;32;20248;-53
2022/05/19 01:35:33;;;;;;;2.83;1.33;;;;;;;;;;4418400;32;20251;-54
2022/05/19 01:38:03;;;;;;;14.23;1.73;;;;;;;;;;4408486;32;20629;-53
2022/05/19 01:40:35;;;;;;;3.57;1.00;;;;;;;;;;4419004;32;20224;-54
2022/05/19 01:43:10;;;;;;;1.17;0.97;;;;;;;;;;4418592;32;20236;-54
2022/05/19 01:45:47;;;;;;;2.93;1.20;;;;;;;;;;4418500;32;20217;-54
2022/05/19 01:48:16;;;;;;;1.17;1.03;;;;;;;;;;4428036;32;20232;-54
2022/05/19 01:50:53;;;;;;;1.55;1.30;;;;;;;;;;4432806;32;20196;-54
2022/05/19 01:53:34;;;;;;;6.37;1.40;;;;;;;;;;4419055;32;20213;-53
2022/05/19 01:56:16;;;;;;;3.03;1.48;;;;;;;;;;4418727;32;20202;-53
2022/05/19 01:59:06;;;;;;;6.80;1.50;;;;;;;;;;4411368;32;20226;-54
2022/05/19 02:01:33;;;;;;;2.53;1.20;;;;;;;;;;4403375;32;20205;-54
2022/05/19 02:04:19;;;;;;;6.10;1.40;;;;;;;;;;4403669;32;20280;-53
2022/05/19 02:06:55;;;;;;;2.67;1.57;;;;;;;;;;4418208;32;20272;-54
2022/05/19 02:09:29;;;;;;;3.50;1.40;;;;;;;;;;4418935;32;20502;-53
2022/05/19 02:11:56;;;;;;;3.23;1.63;;;;;;;;;;4418683;32;20298;-53
2022/05/19 02:14:28;;;;;;;4.67;1.40;;;;;;;;;;4418280;32;20251;-53
2022/05/19 02:16:54;;;;;;;7.90;1.27;;;;;;;;;;4418699;32;20206;-54
2022/05/19 02:19:25;;;;;;;3.43;1.40;;;;;;;;;;4418286;32;20272;-54
2022/05/19 02:21:52;;;;;;;1.20;1.00;;;;;;;;;;4418040;32;20554;-54
2022/05/19 02:24:22;;;;;;;1.90;0.97;;;;;;;;;;4418188;32;20205;-53
2022/05/19 02:26:47;;;;;;;1.83;1.20;;;;;;;;;;4418252;32;20193;-56
2022/05/19 02:29:19;;;;;;;3.63;1.10;;;;;;;;;;4418116;32;20272;-55
2022/05/19 02:31:45;;;;;;;3.60;1.20;;;;;;;;;;4417784;32;20329;-54
2022/05/19 02:34:10;;;;;;;1.77;1.13;;;;;;;;;;4402711;32;20301;-54
2022/05/19 02:36:37;;;;;;;2.43;1.60;;;;;;;;;;4403183;32;20353;-54
2022/05/19 02:39:02;;;;;;;6.30;1.17;;;;;;;;;;4414818;32;20541;-54
2022/05/19 02:41:28;;;;;;;1.83;1.20;;;;;;;;;;4418247;32;20204;-55
2022/05/19 02:43:53;;;;;;;2.27;1.30;;;;;;;;;;4418023;32;20285;-55
2022/05/19 02:46:18;;;;;;;2.73;1.00;;;;;;;;;;4417990;32;20209;-54
2022/05/19 02:48:44;;;;;;;2.57;1.20;;;;;;;;;;4418295;32;20267;-54
2022/05/19 02:51:09;;;;;;;1.63;1.30;;;;;;;;;;4418008;32;20235;-54
2022/05/19 02:53:35;;;;;;;3.10;1.40;;;;;;;;;;4418407;32;20236;-53
2022/05/19 02:56:00;;;;;;;1.93;1.40;;;;;;;;;;4420757;32;20228;-54
2022/05/19 02:58:26;;;;;;;2.27;1.20;;;;;;;;;;4415564;32;20406;-53
2022/05/19 03:00:51;;;;;;;2.27;1.20;;;;;;;;;;4406037;32;20295;-53
2022/05/19 03:03:18;;;;;;;5.47;1.30;;;;;;;;;;4406140;32;20217;-53
2022/05/19 03:09:05;;;;;;;1.73;1.03;;;;;;;;;;4405751;32;20290;-53
2022/05/19 03:11:31;;;;;;;4.33;1.23;;;;;;;;;;4421299;32;20272;-54
2022/05/19 03:13:56;;;;;;;2.43;1.20;;;;;;;;;;4421211;32;20391;-53
2022/05/19 03:16:22;;;;;;;3.23;1.67;;;;;;;;;;4420512;32;20289;-53
2022/05/19 03:18:47;;;;;;;6.13;2.00;;;;;;;;;;4420501;32;20348;-55
2022/05/19 03:21:13;;;;;;;3.57;1.57;;;;;;;;;;4421007;32;20633;-52
2022/05/19 03:23:38;;;;;;;1.47;1.27;;;;;;;;;;4420898;32;20278;-53
2022/05/19 03:26:05;;;;;;;4.77;1.83;;;;;;;;;;4420508;32;20683;-52
2022/05/19 03:28:30;;;;;;;8.20;1.60;;;;;;;;;;4417030;32;20276;-54
2022/05/19 03:30:55;;;;;;;3.77;1.50;;;;;;;;;;4405366;32;20315;-54
2022/05/19 03:33:21;;;;;;;4.13;2.27;;;;;;;;;;4405781;32;20634;-54
2022/05/19 03:35:58;;;;;;;3.03;2.23;;;;;;;;;;4405108;32;20256;-55
2022/05/19 03:38:23;;;;;;;9.73;2.70;;;;;;;;;;4412681;32;20217;-53
2022/05/19 03:40:49;;;;;;;6.60;4.80;;;;;;;;;;4420206;32;20209;-54
2022/05/19 03:43:14;;;;;;;7.87;4.47;;;;;;;;;;4420842;32;20244;-53
2022/05/19 03:45:40;;;;;;;10.53;6.53;;;;;;;;;;4420151;32;20229;-54
2022/05/19 03:48:05;;;;;;;9.23;7.10;;;;;;;;;;4420429;32;20325;-54
2022/05/19 03:50:31;;;;;;;7.10;5.83;;;;;;;;;;4420712;32;20555;-53
2022/05/19 03:52:56;;;;;;;8.33;6.77;;;;;;;;;;4420341;32;20344;-53
2022/05/19 03:55:22;;;;;;;11.77;7.80;;;;;;;;;;4420508;32;20625;-54
2022/05/19 03:57:47;;;;;;;7.70;4.83;;;;;;;;;;4420064;32;20787;-56
2022/05/19 04:00:13;;;;;;;6.40;4.47;;;;;;;;;;4420035;32;20205;-54
2022/05/19 04:02:40;;;;;;;5.17;3.17;;;;;;;;;;4420416;32;20224;-53
2022/05/19 04:05:07;;;;;;;2.33;1.90;;;;;;;;;;4419191;32;20305;-55
2022/05/19 04:07:33;;;;;;;6.57;2.37;;;;;;;;;;4420070;32;20253;-53
2022/05/19 04:09:59;;;;;;;2.77;2.10;;;;;;;;;;4419925;32;20294;-53
2022/05/19 04:12:25;;;;;;;2.63;2.00;;;;;;;;;;4420214;32;20304;-54
2022/05/19 04:14:50;;;;;;;3.07;2.00;;;;;;;;;;4419728;32;20315;-53
2022/05/19 04:17:16;;;;;;;2.40;1.73;;;;;;;;;;4420027;32;20341;-53
2022/05/19 04:19:41;;;;;;;6.53;2.60;;;;;;;;;;4419979;32;20271;-53
2022/05/19 04:22:07;;;;;;;4.83;3.00;;;;;;;;;;4419851;32;20344;-53
2022/05/19 04:24:32;;;;;;;9.47;4.33;;;;;;;;;;4417407;32;20303;-53
2022/05/19 04:26:58;;;;;;;14.87;3.53;;;;;;;;;;4404953;32;20209;-53
2022/05/19 04:29:23;;;;;;;6.83;3.60;;;;;;;;;;4404846;32;20288;-53
2022/05/19 04:31:48;;;;;;;7.80;3.13;;;;;;;;;;4404311;32;20259;-54
2022/05/19 04:34:14;;;;;;;5.63;3.00;;;;;;;;;;4404638;32;20288;-53
2022/05/19 04:36:39;;;;;;;10.30;4.17;;;;;;;;;;4419206;32;20605;-53
2022/05/19 04:39:05;;;;;;;5.17;3.10;;;;;;;;;;4423227;32;20305;-52
2022/05/19 04:41:30;;;;;;;5.07;3.10;;;;;;;;;;4419347;32;20206;-54
2022/05/19 04:43:56;;;;;;;10.50;3.17;;;;;;;;;;4419681;32;20342;-54
2022/05/19 04:46:21;;;;;;;5.33;2.93;;;;;;;;;;4419220;32;20634;-53
2022/05/19 04:48:46;;;;;;;5.93;2.47;;;;;;;;;;4419271;32;20284;-53
2022/05/19 04:51:12;;;;;;;4.00;2.33;;;;;;;;;;4419401;32;20313;-53
2022/05/19 04:53:37;;;;;;;6.73;3.47;;;;;;;;;;4405863;32;20263;-54
2022/05/19 04:56:03;;;;;;;5.27;3.43;;;;;;;;;;4419164;32;20348;-54
2022/05/19 04:58:28;;;;;;;13.53;2.93;;;;;;;;;;4413439;32;20245;-54
2022/05/19 05:00:54;;;;;;;3.83;2.20;;;;;;;;;;4404034;32;20279;-54
2022/05/19 05:03:20;;;;;;;2.00;1.67;;;;;;;;;;4414853;32;20653;-54
2022/05/19 05:05:46;;;;;;;8.33;2.00;;;;;;;;;;4406525;32;20277;-55
2022/05/19 05:08:12;;;;;;;4.87;2.43;;;;;;;;;;4416384;32;20686;-53
2022/05/19 05:10:37;;;;;;;6.13;1.90;;;;;;;;;;4418576;32;20282;-54
2022/05/19 05:13:07;;;;;;;8.73;2.27;;;;;;;;;;4418665;32;20237;-54
2022/05/19 05:15:33;;;;;;;4.50;1.97;;;;;;;;;;4418675;32;20273;-54
2022/05/19 05:17:59;;;;;;;11.30;2.17;;;;;;;;;;4417555;32;20282;-53
2022/05/19 05:20:25;;;;;;;8.20;3.00;;;;;;;;;;4416989;32;20259;-53
2022/05/19 05:22:50;;;;;;;3.47;2.20;;;;;;;;;;4418364;32;20248;-53
2022/05/19 05:25:16;;;;;;;5.80;1.73;;;;;;;;;;4418064;32;20304;-54
2022/05/19 05:27:42;;;;;;;5.67;2.30;;;;;;;;;;4417971;32;20220;-54
2022/05/19 05:30:10;;;;;;;3.30;2.23;;;;;;;;;;4418537;32;20546;-54
2022/05/19 05:32:36;;;;;;;9.17;2.83;;;;;;;;;;4417840;32;20221;-53
2022/05/19 05:35:03;;;;;;;7.03;2.80;;;;;;;;;;4418136;32;20325;-53
2022/05/19 05:37:28;;;;;;;5.60;2.20;;;;;;;;;;4413808;32;20225;-54
2022/05/19 05:39:53;;;;;;;5.78;1.92;;;;;;;;;;4412722;32;20197;-53
2022/05/19 05:42:19;;;;;;;4.03;2.33;;;;;;;;;;4417841;32;20253;-54
2022/05/19 05:44:48;;;;;;;3.43;1.50;;;;;;;;;;4417900;32;20750;-56
2022/05/19 05:47:13;;;;;;;2.27;1.40;;;;;;;;;;4416577;32;20229;-54
2022/05/19 05:49:39;;;;;;;5.83;1.73;;;;;;;;;;4418005;32;20315;-53
2022/05/19 05:52:05;;;;;;;3.33;1.97;;;;;;;;;;4403862;32;20238;-54
2022/05/19 05:54:31;;;;;;;7.10;1.90;;;;;;;;;;4417707;32;20240;-55
2022/05/19 05:56:56;;;;;;;4.73;1.90;;;;;;;;;;4417743;32;20298;-54
2022/05/19 05:59:22;;;;;;;7.93;2.03;;;;;;;;;;4417499;32;20670;-54
2022/05/19 06:01:47;;;;;;;3.57;1.63;;;;;;;;;;4407614;32;20228;-54
2022/05/19 06:04:13;;;;;;;2.23;1.80;;;;;;;;;;4413763;32;20322;-55
2022/05/19 06:06:38;;;;;;;6.03;1.87;;;;;;;;;;4414684;32;20217;-54
2022/05/19 06:09:04;;;;;;;2.50;1.97;;;;;;;;;;4417743;32;20721;-53
2022/05/19 06:11:29;;;;;;;7.77;2.60;;;;;;;;;;4417523;32;20311;-54
2022/05/19 06:13:55;;;;;;;34.43;8.70;;;;;;;;;;4417650;32;20286;-53
2022/05/19 06:16:20;;;;;;;47.03;11.03;;;;;;;;;;4417546;32;20209;-53
2022/05/19 06:18:46;;;;;;;53.17;10.97;;;;;;;;;;4416204;32;20309;-53
2022/05/19 06:21:11;;;;;;;10.83;3.03;;;;;;;;;;4417854;32;20251;-53
2022/05/19 06:23:37;;;;;;;8.77;2.77;;;;;;;;;;4418139;32;20281;-54
2022/05/19 06:26:03;;;;;;;11.13;2.70;;;;;;;;;;4417435;32;20319;-54
2022/05/19 06:28:29;;;;;;;9.13;2.90;;;;;;;;;;4420202;32;20229;-54
2022/05/19 06:30:55;;;;;;;5.80;2.07;;;;;;;;;;4433098;32;20270;-54
2022/05/19 06:33:22;;;;;;;11.27;2.83;;;;;;;;;;4422656;32;20364;-54
2022/05/19 06:35:48;;;;;;;16.42;3.62;;;;;;;;;;4415849;32;20320;-54
2022/05/19 06:38:14;;;;;;;3.60;2.10;;;;;;;;;;4417719;32;20291;-53
2022/05/19 06:40:41;;;;;;;5.47;1.60;;;;;;;;;;4417064;32;20243;-51
2022/05/19 06:43:11;;;;;;;3.93;1.60;;;;;;;;;;4417035;32;20429;-52
2022/05/19 06:45:37;;;;;;;3.42;1.35;;;;;;;;;;4409471;32;20284;-53
2022/05/19 06:48:02;;;;;;;5.07;2.10;;;;;;;;;;4402227;32;20254;-53
2022/05/19 06:50:29;;;;;;;3.90;2.03;;;;;;;;;;4402771;32;20228;-53
2022/05/19 06:53:01;;;;;;;3.23;2.07;;;;;;;;;;4402672;32;20303;-52
2022/05/19 06:55:28;;;;;;;4.57;2.15;;;;;;;;;;4410734;32;20643;-52
2022/05/19 06:57:53;;;;;;;6.20;2.87;;;;;;;;;;4408407;32;20366;-53
2022/05/19 07:00:22;;;;;;;6.70;2.20;;;;;;;;;;4413349;32;20622;-52
2022/05/19 07:02:51;;;;;;;3.25;1.83;;;;;;;;;;4417347;32;20309;-55
2022/05/19 07:05:21;;;;;;;7.70;2.67;;;;;;;;;;4417271;32;20296;-53
2022/05/19 07:07:47;;;;;;;5.47;2.75;;;;;;;;;;4417608;32;20324;-53
2022/05/19 07:10:18;;;;;;;3.23;2.07;;;;;;;;;;4417764;32;20252;-53
2022/05/19 07:12:44;;;;;;;6.03;2.92;;;;;;;;;;4429976;32;20239;-53
2022/05/19 07:15:12;;;;;;;7.30;2.42;;;;;;;;;;4432928;32;20600;-53
2022/05/19 07:17:38;;;;;;;6.90;2.97;;;;;;;;;;4432654;32;20548;-52
2022/05/19 07:22:49;;;;;;;5.67;1.87;;;;;;;;;;4418006;32;20231;-53
2022/05/19 07:25:15;;;;;;;6.70;3.12;;;;;;;;;;4417330;32;20257;-53
2022/05/19 07:27:41;;;;;;;14.52;2.15;;;;;;;;;;4417718;32;20221;-53
2022/05/19 07:30:07;;;;;;;3.72;1.98;;;;;;;;;;4417387;32;20222;-53
2022/05/19 07:32:33;;;;;;;11.32;2.90;;;;;;;;;;4417625;32;20610;-53
2022/05/19 07:34:59;;;;;;;4.12;1.90;;;;;;;;;;4417234;32;20263;-54
2022/05/19 07:37:25;;;;;;;3.37;1.40;;;;;;;;;;4417103;32;20267;-53
2022/05/19 07:39:52;;;;;;;4.05;1.87;;;;;;;;;;4417246;32;20201;-53
2022/05/19 07:42:18;;;;;;;6.40;1.27;;;;;;;;;;4420373;32;20251;-53
2022/05/19 07:44:44;;;;;;;6.15;1.45;;;;;;;;;;4419977;32;20262;-53
2022/05/19 07:47:10;;;;;;;3.87;1.12;;;;;;;;;;4420265;32;20300;-52
2022/05/19 07:49:36;;;;;;;2.33;1.23;;;;;;;;;;4420418;32;20295;-55
2022/05/19 07:52:02;;;;;;;3.08;0.93;;;;;;;;;;4419982;32;20638;-52
2022/05/19 07:54:28;;;;;;;5.72;1.42;;;;;;;;;;4409065;32;20347;-54
2022/05/19 07:56:54;;;;;;;0.85;0.70;;;;;;;;;;4417597;32;20193;-53
2022/05/19 07:59:20;;;;;;;2.10;1.15;;;;;;;;;;4417757;32;20356;-53
2022/05/19 08:01:47;;;;;;;2.62;1.20;;;;;;;;;;4419995;32;20264;-54
2022/05/19 08:04:13;;;;;;;1.65;0.80;;;;;;;;;;4419930;32;20193;-54
2022/05/19 08:06:39;;;;;;;1.90;1.15;;;;;;;;;;4419663;32;20240;-53
2022/05/19 08:10:20;;;;;;;3.28;1.00;;;;;;;;;;4420123;32;20669;-54
2022/05/19 08:11:51;;;;;;;2.58;0.80;;;;;;;;;;4432536;32;20221;-54
2022/05/19 08:17:03;;;;;;;11.75;1.60;;;;;;;;;;4434574;32;20234;-54
2022/05/19 08:19:29;;;;;;;2.97;0.80;;;;;;;;;;4435032;32;20194;-54
2022/05/19 08:21:55;;;;;;;4.65;1.70;;;;;;;;;;4424989;32;20363;-53
2022/05/19 08:24:24;;;;;;;2.30;1.33;;;;;;;;;;4418849;32;20665;-55
2022/05/19 08:26:52;;;;;;;4.78;1.12;;;;;;;;;;4401792;32;20224;-54
2022/05/19 08:29:21;;;;;;;3.97;1.05;;;;;;;;;;4403991;32;20194;-54
2022/05/19 08:31:46;;;;;;;1.15;0.93;;;;;;;;;;4404269;32;20297;-53
2022/05/19 08:34:13;;;;;;;4.78;0.90;;;;;;;;;;4404241;32;20648;-53
2022/05/19 08:36:46;;;;;;;1.00;0.80;;;;;;;;;;4404131;32;20201;-52
2022/05/19 08:39:12;;;;;;;5.25;1.02;;;;;;;;;;4412215;32;20238;-52
2022/05/19 08:41:58;;;;;;;3.50;1.10;;;;;;;;;;4419166;32;20280;-53
2022/05/19 08:44:49;;;;;;;0.80;0.80;;;;;;;;;;4415570;32;20209;-53
2022/05/19 08:47:20;;;;;;;3.55;1.17;;;;;;;;;;4418850;32;20629;-53
2022/05/19 08:50:01;;;;;;;4.93;1.02;;;;;;;;;;4412649;32;20347;-53
2022/05/19 08:52:40;;;;;;;1.77;0.98;;;;;;;;;;4411987;32;20826;-54
2022/05/19 08:55:07;;;;;;;1.30;1.20;;;;;;;;;;4420650;32;20716;-55
2022/05/19 08:57:38;;;;;;;1.67;1.15;;;;;;;;;;4433997;32;20269;-54
2022/05/19 09:00:17;;;;;;;6.25;1.15;;;;;;;;;;4417444;32;20316;-54
2022/05/19 09:02:58;;;;;;;0.73;0.70;;;;;;;;;;4418953;32;20217;-53
2022/05/19 09:05:53;;;;;;;5.57;1.10;;;;;;;;;;4417464;32;20299;-54
2022/05/19 09:08:24;;;;;;;3.37;1.20;;;;;;;;;;4405269;32;20232;-54
2022/05/19 09:11:12;;;;;;;1.15;0.82;;;;;;;;;;4403743;32;20197;-52
2022/05/19 09:14:00;;;;;;;1.83;1.05;;;;;;;;;;4403518;32;20278;-53
2022/05/19 09:16:27;;;;;;;1.10;0.80;;;;;;;;;;4403825;32;20264;-54
2022/05/19 09:19:06;;;;;;;1.58;1.00;;;;;;;;;;4417132;32;20236;-53
2022/05/19 09:21:36;;;;;;;2.65;1.23;;;;;;;;;;4419497;32;20273;-54
2022/05/19 09:24:03;;;;;;;1.50;1.05;;;;;;;;;;4419272;32;20256;-53
2022/05/19 09:26:52;;;;;;;7.28;1.08;;;;;;;;;;4419288;32;20233;-53
2022/05/19 09:29:20;;;;;;;9.55;2.10;;;;;;;;;;4418640;32;20181;-54
2022/05/19 09:32:25;;;;;;;1.35;0.98;;;;;;;;;;4419045;32;20260;-54
2022/05/19 09:34:53;;;;;;;5.15;1.42;;;;;;;;;;4411285;32;20228;-52
2022/05/19 09:37:42;;;;;;;1.60;1.05;;;;;;;;;;4419021;32;20298;-53
2022/05/19 09:40:11;;;;;;;2.35;0.85;;;;;;;;;;4419004;32;20292;-54
2022/05/19 09:42:53;;;;;;;1.30;0.98;;;;;;;;;;4419315;32;20308;-52
2022/05/19 09:45:23;;;;;;;2.97;0.95;;;;;;;;;;4405560;32;20245;-52
2022/05/19 09:47:57;;;;;;;1.05;0.90;;;;;;;;;;4406066;32;20221;-52
2022/05/19 09:50:29;;;;;;;4.47;0.80;;;;;;;;;;4416915;32;20227;-52
2022/05/19 09:53:06;;;;;;;3.53;0.70;;;;;;;;;;4416586;32;20613;-52
2022/05/19 09:55:39;;;;;;;2.37;1.00;;;;;;;;;;4418164;32;20194;-53
2022/05/19 09:58:08;;;;;;;1.75;0.70;;;;;;;;;;4418213;32;20637;-53
2022/05/19 10:00:53;;;;;;;2.60;1.15;;;;;;;;;;4418285;32;20219;-53
2022/05/19 10:03:24;;;;;;;1.27;0.77;;;;;;;;;;4416181;32;20722;-53
2022/05/19 10:05:54;;;;;;;1.05;0.70;;;;;;;;;;4410958;32;20228;-53
2022/05/19 10:08:35;;;;;;;1.87;0.85;;;;;;;;;;4403721;32;20328;-53
2022/05/19 10:11:12;;;;;;;7.22;1.00;;;;;;;;;;4403282;32;20253;-52
2022/05/19 10:13:43;;;;;;;3.70;0.80;;;;;;;;;;4407390;32;20209;-53
2022/05/19 10:16:36;;;;;;;6.87;0.82;;;;;;;;;;4433123;32;20219;-54
2022/05/19 10:19:30;;;;;;;1.67;1.08;;;;;;;;;;4419176;32;20291;-53
2022/05/19 10:22:26;;;;;;;1.95;0.88;;;;;;;;;;4418322;32;20205;-54
2022/05/19 10:25:13;;;;;;;2.83;0.93;;;;;;;;;;4412830;32;20672;-54
2022/05/19 10:31:18;;;;;;;2.05;1.40;;;;;;;;;;4418100;32;20231;-54
2022/05/19 10:34:10;;;;;;;1.55;1.08;;;;;;;;;;4418529;32;20337;-54
2022/05/19 10:36:35;;;;;;;1.15;1.05;;;;;;;;;;4418394;32;20214;-54
2022/05/19 10:39:39;;;;;;;1.42;1.02;;;;;;;;;;4414435;32;20544;-53
2022/05/19 10:42:32;;;;;;;3.50;0.90;;;;;;;;;;4413790;32;20625;-54
2022/05/19 10:45:23;;;;;;;3.95;1.08;;;;;;;;;;4406731;32;20639;-54
2022/05/19 10:48:04;;;;;;;7.97;1.05;;;;;;;;;;4412702;32;20289;-54
2022/05/19 10:50:32;;;;;;;5.05;1.25;;;;;;;;;;4418403;32;20201;-54
2022/05/19 10:53:03;;;;;;;1.48;0.85;;;;;;;;;;4418294;32;20248;-53
2022/05/19 10:56:10;;;;;;;0.60;0.60;;;;;;;;;;4418298;32;20194;-54
2022/05/19 10:58:40;;;;;;;1.10;0.90;;;;;;;;;;4394961;32;20684;-54
2022/05/19 11:01:27;;;;;;;1.58;1.10;;;;;;;;;;4403306;32;20697;-55
2022/05/19 11:04:01;;;;;;;6.40;1.20;;;;;;;;;;4403141;32;20208;-53
2022/05/19 11:06:38;;;;;;;1.25;1.10;;;;;;;;;;4411911;32;20300;-54
2022/05/19 11:09:19;;;;;;;5.35;3.12;;;;;;;;;;4418170;32;20700;-53
2022/05/19 11:12:15;;;;;;;3.15;1.00;;;;;;;;;;4415760;32;20209;-54
2022/05/19 11:14:40;;;;;;;3.03;1.52;;;;;;;;;;4417301;32;20259;-53
2022/05/19 11:17:13;;;;;;;1.83;0.90;;;;;;;;;;4419911;32;20316;-54
2022/05/19 11:20:03;;;;;;;2.58;1.20;;;;;;;;;;4421115;32;20531;-54
2022/05/19 11:22:32;;;;;;;2.97;1.45;;;;;;;;;;4408088;32;20277;-54
2022/05/19 11:27:58;;;;;;;2.12;1.12;;;;;;;;;;4405929;32;20240;-55
2022/05/19 11:30:33;;;;;;;4.90;1.33;;;;;;;;;;4420716;32;20209;-54
2022/05/19 11:33:02;;;;;;;2.62;1.30;;;;;;;;;;4421134;32;20234;-53
2022/05/19 11:35:53;;;;;;;5.22;1.50;;;;;;;;;;4406948;32;20254;-53
2022/05/19 11:38:25;;;;;;;2.42;1.12;;;;;;;;;;4417619;32;20290;-53
2022/05/19 11:41:07;;;;;;;3.60;0.90;;;;;;;;;;4420485;32;20320;-54
2022/05/19 11:43:39;;;;;;;2.40;1.40;;;;;;;;;;4420746;32;20542;-54
2022/05/19 11:46:29;;;;;;;1.87;1.40;;;;;;;;;;4419635;32;20687;-54
2022/05/19 11:55:13;;;;;;;2.97;1.45;;;;;;;;;;4420465;32;20661;-54
2022/05/19 11:57:52;;;;;;;2.37;1.40;;;;;;;;;;4420919;32;20231;-54
2022/05/19 12:00:49;;;;;;;2.22;1.10;;;;;;;;;;4421052;32;20227;-53
2022/05/19 12:03:21;;;;;;;3.90;1.55;;;;;;;;;;4398903;32;20240;-54
2022/05/19 12:06:01;;;;;;;2.03;1.42;;;;;;;;;;4417053;32;20277;-54
2022/05/19 12:08:35;;;;;;;1.35;1.12;;;;;;;;;;4435829;32;20367;-53
2022/05/19 12:11:31;;;;;;;2.47;1.00;;;;;;;;;;4424384;32;20295;-54
2022/05/19 12:14:06;;;;;;;1.75;1.37;;;;;;;;;;4419666;32;20296;-53
2022/05/19 12:16:55;;;;;;;2.12;1.10;;;;;;;;;;4420398;32;20682;-54
2022/05/19 12:19:52;;;;;;;2.40;1.50;;;;;;;;;;4409820;32;20232;-54
2022/05/19 12:22:30;;;;;;;1.92;1.15;;;;;;;;;;4418870;32;20217;-53
2022/05/19 12:25:07;;;;;;;3.97;1.40;;;;;;;;;;4419110;32;20197;-53
2022/05/19 12:27:36;;;;;;;2.75;1.15;;;;;;;;;;4418573;32;20296;-52
2022/05/19 12:33:11;;;;;;;2.40;1.25;;;;;;;;;;4418862;32;20641;-53
2022/05/19 12:35:38;;;;;;;2.60;1.10;;;;;;;;;;4418995;32;20300;-53
2022/05/19 12:38:06;;;;;;;2.30;1.12;;;;;;;;;;4418969;32;20731;-54
2022/05/19 12:40:58;;;;;;;1.67;1.05;;;;;;;;;;4413029;32;20216;-55
2022/05/19 12:43:24;;;;;;;2.42;1.08;;;;;;;;;;4418727;32;20271;-54
2022/05/19 12:45:52;;;;;;;3.05;1.20;;;;;;;;;;4412792;32;20351;-54
2022/05/19 12:48:21;;;;;;;2.95;0.90;;;;;;;;;;4418787;32;20707;-53
2022/05/19 12:51:08;;;;;;;3.83;1.65;;;;;;;;;;4418367;32;20284;-54
2022/05/19 12:53:49;;;;;;;1.70;0.90;;;;;;;;;;4419070;32;20225;-53
2022/05/19 12:56:46;;;;;;;0.98;0.85;;;;;;;;;;4418315;32;20236;-53
2022/05/19 12:59:42;;;;;;;2.17;0.88;;;;;;;;;;4407743;32;20297;-53
2022/05/19 13:02:20;;;;;;;1.75;1.00;;;;;;;;;;4405052;32;20351;-53
2022/05/19 13:04:51;;;;;;;2.70;0.77;;;;;;;;;;4418911;32;20624;-53
2022/05/19 13:07:33;;;;;;;2.22;1.02;;;;;;;;;;4418424;32;20232;-54
2022/05/19 13:10:05;;;;;;;1.92;1.48;;;;;;;;;;4410050;32;20232;-53
2022/05/19 13:12:44;;;;;;;1.92;0.80;;;;;;;;;;4415342;32;20237;-54
2022/05/19 13:15:10;;;;;;;4.95;0.80;;;;;;;;;;4404204;32;20673;-53
2022/05/19 13:17:45;;;;;;;1.25;0.98;;;;;;;;;;4408381;32;20522;-54
2022/05/19 13:20:15;;;;;;;1.20;0.90;;;;;;;;;;4417940;32;20294;-54
2022/05/19 13:22:53;;;;;;;1.23;0.90;;;;;;;;;;4415975;32;20367;-54
2022/05/19 13:25:20;;;;;;;1.67;0.90;;;;;;;;;;4396644;32;20257;-53
2022/05/19 13:30:43;;;;;;;1.50;1.40;;;;;;;;;;4398700;32;20335;-53
2022/05/19 13:33:11;;;;;;;1.70;1.08;;;;;;;;;;4408027;32;20585;-54
2022/05/19 13:35:37;;;;;;;4.95;1.60;;;;;;;;;;4417846;32;20285;-54
2022/05/19 13:38:21;;;;;;;4.15;1.48;;;;;;;;;;4411813;32;20332;-54
2022/05/19 13:40:48;;;;;;;2.05;1.17;;;;;;;;;;4417543;32;20291;-54
2022/05/19 13:43:37;;;;;;;1.45;1.02;;;;;;;;;;4409556;32;20248;-54
2022/05/19 13:46:11;;;;;;;2.12;0.70;;;;;;;;;;4404829;32;20551;-54
2022/05/19 13:48:50;;;;;;;5.97;1.00;;;;;;;;;;4403094;32;20787;-54
2022/05/19 13:51:33;;;;;;;3.20;1.23;;;;;;;;;;4402548;32;20220;-54
2022/05/19 13:54:23;;;;;;;10.32;2.55;;;;;;;;;;4402756;32;20280;-53
2022/05/19 13:56:48;;;;;;;1.42;1.12;;;;;;;;;;4373310;32;20197;-54
2022/05/19 13:59:18;;;;;;;2.70;1.12;;;;;;;;;;4412836;32;20306;-53
2022/05/19 14:01:53;;;;;;;1.30;0.90;;;;;;;;;;4432608;32;20194;-54
2022/05/19 14:04:20;;;;;;;2.97;1.10;;;;;;;;;;4417525;32;20222;-54
2022/05/19 14:06:47;;;;;;;1.25;0.90;;;;;;;;;;4417439;32;20260;-55
2022/05/19 14:09:27;;;;;;;1.35;0.98;;;;;;;;;;4417251;32;20193;-55
2022/05/19 14:12:33;;;;;;;1.95;1.00;;;;;;;;;;4402031;32;20704;-54
2022/05/19 14:15:10;;;;;;;2.55;1.00;;;;;;;;;;4370092;32;20221;-54
2022/05/19 14:17:44;;;;;;;1.77;1.10;;;;;;;;;;4399277;32;20320;-54
2022/05/19 14:20:18;;;;;;;3.65;1.37;;;;;;;;;;4402028;32;20222;-56
2022/05/19 14:22:45;;;;;;;3.25;1.45;;;;;;;;;;4402674;32;20247;-56
2022/05/19 14:25:11;;;;;;;8.15;1.67;;;;;;;;;;4408725;32;20633;-54
2022/05/19 14:27:39;;;;;;;2.20;1.52;;;;;;;;;;4417700;32;20296;-54
2022/05/19 14:30:12;;;;;;;5.40;1.67;;;;;;;;;;4416965;32;20239;-53
2022/05/19 14:32:50;;;;;;;6.18;1.60;;;;;;;;;;4417213;32;20275;-53
2022/05/19 14:35:19;;;;;;;2.30;1.55;;;;;;;;;;4403637;32;20236;-55
2022/05/19 14:37:50;;;;;;;6.20;1.08;;;;;;;;;;4417242;32;20224;-55
2022/05/19 14:43:12;;;;;;;2.80;1.50;;;;;;;;;;4417180;32;20669;-54
2022/05/19 14:45:41;;;;;;;2.67;1.42;;;;;;;;;;4408625;32;20326;-54
2022/05/19 14:48:16;;;;;;;1.77;1.10;;;;;;;;;;4401460;32;20340;-53
2022/05/19 14:50:45;;;;;;;9.13;1.48;;;;;;;;;;4404299;32;20205;-55
2022/05/19 14:53:20;;;;;;;0.88;0.80;;;;;;;;;;4404574;32;20388;-55
2022/05/19 14:56:03;;;;;;;1.02;0.75;;;;;;;;;;4413625;32;20284;-56
2022/05/19 14:58:45;;;;;;;1.05;0.85;;;;;;;;;;4419749;32;20661;-55
2022/05/19 15:01:11;;;;;;;1.25;1.05;;;;;;;;;;4420162;32;20216;-55
2022/05/19 15:03:37;;;;;;;2.28;0.95;;;;;;;;;;4420090;32;20312;-54
2022/05/19 15:06:03;;;;;;;4.50;1.48;;;;;;;;;;4412741;32;20226;-53
2022/05/19 15:08:29;;;;;;;2.58;1.15;;;;;;;;;;4404842;32;20605;-54
2022/05/19 15:10:55;;;;;;;5.95;1.23;;;;;;;;;;4404404;32;20234;-54
2022/05/19 15:13:20;;;;;;;1.58;0.90;;;;;;;;;;4405027;32;20233;-54
2022/05/19 15:15:46;;;;;;;1.10;1.00;;;;;;;;;;4404836;32;20300;-55
2022/05/19 15:18:14;;;;;;;3.03;1.37;;;;;;;;;;4404887;32;20229;-54
2022/05/19 15:20:41;;;;;;;5.57;1.52;;;;;;;;;;4406622;32;20214;-54
2022/05/19 15:23:07;;;;;;;4.57;1.27;;;;;;;;;;4420176;32;20779;-55
2022/05/19 15:25:33;;;;;;;5.68;1.50;;;;;;;;;;4419667;32;20243;-54
2022/05/19 15:27:58;;;;;;;2.03;0.98;;;;;;;;;;4419738;32;20241;-55
2022/05/19 15:30:28;;;;;;;2.58;0.90;;;;;;;;;;4419519;32;20235;-55
2022/05/19 15:32:53;;;;;;;3.58;1.42;;;;;;;;;;4420034;32;20285;-55
2022/05/19 15:35:19;;;;;;;1.60;1.00;;;;;;;;;;4419868;32;20201;-54
2022/05/19 15:37:45;;;;;;;1.50;0.98;;;;;;;;;;4419364;32;20237;-54
2022/05/19 15:40:14;;;;;;;2.42;0.73;;;;;;;;;;4419228;32;20629;-55